sensor_id;sensor_type;location;lat;lon;timestamp;P1;durP1;ratioP1;P2;durP2;ratioP2
74626;SDS011;63132;52.268;5.192;2022-08-30T00:01:53;14.25;;;5.45;;
74626;SDS011;63132;52.268;5.192;2022-08-30T00:04:18;11.77;;;4.90;;
74626;SDS011;63132;52.268;5.192;2022-08-30T00:06:43;11.23;;;5.03;;
74626;SDS011;63132;52.268;5.192;2022-08-30T00:09:09;11.13;;;4.80;;
74626;SDS011;63132;52.268;5.192;2022-08-30T00:11:36;12.10;;;5.10;;
74626;SDS011;63132;52.268;5.192;2022-08-30T00:14:01;11.00;;;5.20;;
74626;SDS011;63132;52.268;5.192;2022-08-30T00:16:26;10.00;;;5.03;;
74626;SDS011;63132;52.268;5.192;2022-08-30T00:18:52;10.83;;;5.33;;
74626;SDS011;63132;52.268;5.192;2022-08-30T00:21:18;9.98;;;5.30;;
74626;SDS011;63132;52.268;5.192;2022-08-30T00:23:43;11.97;;;5.63;;
74626;SDS011;63132;52.268;5.192;2022-08-30T00:26:09;10.00;;;5.50;;
74626;SDS011;63132;52.268;5.192;2022-08-30T00:28:35;9.47;;;5.50;;
74626;SDS011;63132;52.268;5.192;2022-08-30T00:31:01;13.43;;;5.73;;
74626;SDS011;63132;52.268;5.192;2022-08-30T00:33:28;10.48;;;5.82;;
74626;SDS011;63132;52.268;5.192;2022-08-30T00:35:53;12.20;;;6.07;;
74626;SDS011;63132;52.268;5.192;2022-08-30T00:38:19;12.47;;;6.43;;
74626;SDS011;63132;52.268;5.192;2022-08-30T00:40:47;12.65;;;6.38;;
74626;SDS011;63132;52.268;5.192;2022-08-30T00:43:15;11.23;;;6.68;;
74626;SDS011;63132;52.268;5.192;2022-08-30T00:45:44;12.13;;;6.60;;
74626;SDS011;63132;52.268;5.192;2022-08-30T00:48:09;14.13;;;7.10;;
74626;SDS011;63132;52.268;5.192;2022-08-30T00:50:39;12.73;;;6.67;;
74626;SDS011;63132;52.268;5.192;2022-08-30T00:53:09;12.20;;;6.65;;
74626;SDS011;63132;52.268;5.192;2022-08-30T00:55:39;16.77;;;7.15;;
74626;SDS011;63132;52.268;5.192;2022-08-30T00:58:06;12.43;;;7.30;;
74626;SDS011;63132;52.268;5.192;2022-08-30T01:00:33;14.23;;;8.07;;
74626;SDS011;63132;52.268;5.192;2022-08-30T01:03:00;12.68;;;8.40;;
74626;SDS011;63132;52.268;5.192;2022-08-30T01:05:25;16.63;;;7.77;;
74626;SDS011;63132;52.268;5.192;2022-08-30T01:07:51;13.87;;;7.67;;
74626;SDS011;63132;52.268;5.192;2022-08-30T01:10:16;11.83;;;7.83;;
74626;SDS011;63132;52.268;5.192;2022-08-30T01:12:43;13.27;;;7.78;;
74626;SDS011;63132;52.268;5.192;2022-08-30T01:15:10;15.53;;;8.17;;
74626;SDS011;63132;52.268;5.192;2022-08-30T01:17:39;13.48;;;8.93;;
74626;SDS011;63132;52.268;5.192;2022-08-30T01:20:13;14.73;;;8.70;;
74626;SDS011;63132;52.268;5.192;2022-08-30T01:25:13;13.23;;;9.00;;
74626;SDS011;63132;52.268;5.192;2022-08-30T01:27:42;14.27;;;9.25;;
74626;SDS011;63132;52.268;5.192;2022-08-30T01:30:12;16.05;;;9.18;;
74626;SDS011;63132;52.268;5.192;2022-08-30T01:32:41;17.92;;;10.15;;
74626;SDS011;63132;52.268;5.192;2022-08-30T01:35:09;15.77;;;10.10;;
74626;SDS011;63132;52.268;5.192;2022-08-30T01:37:36;18.98;;;10.30;;
74626;SDS011;63132;52.268;5.192;2022-08-30T01:40:04;16.90;;;9.75;;
74626;SDS011;63132;52.268;5.192;2022-08-30T01:42:31;14.35;;;10.57;;
74626;SDS011;63132;52.268;5.192;2022-08-30T01:44:56;15.65;;;10.10;;
74626;SDS011;63132;52.268;5.192;2022-08-30T01:47:22;13.87;;;10.30;;
74626;SDS011;63132;52.268;5.192;2022-08-30T01:49:48;14.75;;;9.88;;
74626;SDS011;63132;52.268;5.192;2022-08-30T01:52:14;16.52;;;10.18;;
74626;SDS011;63132;52.268;5.192;2022-08-30T01:54:40;18.08;;;11.43;;
74626;SDS011;63132;52.268;5.192;2022-08-30T01:57:08;19.40;;;11.53;;
74626;SDS011;63132;52.268;5.192;2022-08-30T01:59:39;17.30;;;10.82;;
74626;SDS011;63132;52.268;5.192;2022-08-30T02:02:07;17.55;;;10.68;;
74626;SDS011;63132;52.268;5.192;2022-08-30T02:04:33;13.90;;;9.88;;
74626;SDS011;63132;52.268;5.192;2022-08-30T02:07:00;16.13;;;11.15;;
74626;SDS011;63132;52.268;5.192;2022-08-30T02:09:26;18.13;;;11.30;;
74626;SDS011;63132;52.268;5.192;2022-08-30T02:11:51;19.13;;;12.37;;
74626;SDS011;63132;52.268;5.192;2022-08-30T02:14:17;20.43;;;12.30;;
74626;SDS011;63132;52.268;5.192;2022-08-30T02:16:42;21.80;;;12.30;;
74626;SDS011;63132;52.268;5.192;2022-08-30T02:19:08;17.03;;;12.23;;
74626;SDS011;63132;52.268;5.192;2022-08-30T02:21:36;14.65;;;10.95;;
74626;SDS011;63132;52.268;5.192;2022-08-30T02:24:01;16.90;;;11.63;;
74626;SDS011;63132;52.268;5.192;2022-08-30T02:26:27;16.38;;;12.48;;
74626;SDS011;63132;52.268;5.192;2022-08-30T02:28:52;20.88;;;11.18;;
74626;SDS011;63132;52.268;5.192;2022-08-30T02:31:18;17.67;;;11.90;;
74626;SDS011;63132;52.268;5.192;2022-08-30T02:33:45;18.35;;;11.90;;
74626;SDS011;63132;52.268;5.192;2022-08-30T02:36:11;15.27;;;11.10;;
74626;SDS011;63132;52.268;5.192;2022-08-30T02:38:37;15.00;;;10.75;;
74626;SDS011;63132;52.268;5.192;2022-08-30T02:41:03;16.43;;;11.40;;
74626;SDS011;63132;52.268;5.192;2022-08-30T02:43:28;18.45;;;11.23;;
74626;SDS011;63132;52.268;5.192;2022-08-30T02:45:54;17.03;;;10.83;;
74626;SDS011;63132;52.268;5.192;2022-08-30T02:48:19;17.17;;;11.23;;
74626;SDS011;63132;52.268;5.192;2022-08-30T02:50:46;17.02;;;12.05;;
74626;SDS011;63132;52.268;5.192;2022-08-30T02:53:13;15.02;;;10.95;;
74626;SDS011;63132;52.268;5.192;2022-08-30T02:55:39;15.87;;;11.57;;
74626;SDS011;63132;52.268;5.192;2022-08-30T02:58:04;13.47;;;9.63;;
74626;SDS011;63132;52.268;5.192;2022-08-30T03:00:30;20.35;;;13.32;;
74626;SDS011;63132;52.268;5.192;2022-08-30T03:02:56;16.80;;;11.95;;
74626;SDS011;63132;52.268;5.192;2022-08-30T03:05:21;18.42;;;13.00;;
74626;SDS011;63132;52.268;5.192;2022-08-30T03:07:47;17.52;;;12.30;;
74626;SDS011;63132;52.268;5.192;2022-08-30T03:10:14;17.23;;;12.17;;
74626;SDS011;63132;52.268;5.192;2022-08-30T03:12:40;16.83;;;11.75;;
74626;SDS011;63132;52.268;5.192;2022-08-30T03:15:06;21.20;;;14.17;;
74626;SDS011;63132;52.268;5.192;2022-08-30T03:17:33;19.48;;;12.80;;
74626;SDS011;63132;52.268;5.192;2022-08-30T03:19:59;17.03;;;13.23;;
74626;SDS011;63132;52.268;5.192;2022-08-30T03:22:26;20.00;;;14.57;;
74626;SDS011;63132;52.268;5.192;2022-08-30T03:24:53;20.67;;;14.83;;
74626;SDS011;63132;52.268;5.192;2022-08-30T03:27:22;23.20;;;14.82;;
74626;SDS011;63132;52.268;5.192;2022-08-30T03:29:47;23.55;;;15.90;;
74626;SDS011;63132;52.268;5.192;2022-08-30T03:32:13;22.00;;;15.20;;
74626;SDS011;63132;52.268;5.192;2022-08-30T03:34:38;21.50;;;14.90;;
74626;SDS011;63132;52.268;5.192;2022-08-30T03:37:04;22.30;;;15.43;;
74626;SDS011;63132;52.268;5.192;2022-08-30T03:39:29;22.33;;;16.00;;
74626;SDS011;63132;52.268;5.192;2022-08-30T03:41:55;26.90;;;17.10;;
74626;SDS011;63132;52.268;5.192;2022-08-30T03:44:21;20.23;;;14.67;;
74626;SDS011;63132;52.268;5.192;2022-08-30T03:46:47;21.83;;;15.90;;
74626;SDS011;63132;52.268;5.192;2022-08-30T03:49:12;28.80;;;17.63;;
74626;SDS011;63132;52.268;5.192;2022-08-30T03:51:38;29.77;;;17.37;;
74626;SDS011;63132;52.268;5.192;2022-08-30T03:54:04;25.10;;;17.70;;
74626;SDS011;63132;52.268;5.192;2022-08-30T03:56:29;25.97;;;18.60;;
74626;SDS011;63132;52.268;5.192;2022-08-30T03:58:55;26.13;;;17.93;;
74626;SDS011;63132;52.268;5.192;2022-08-30T04:01:20;27.17;;;17.93;;
74626;SDS011;63132;52.268;5.192;2022-08-30T04:03:46;23.70;;;16.80;;
74626;SDS011;63132;52.268;5.192;2022-08-30T04:06:11;25.37;;;17.43;;
74626;SDS011;63132;52.268;5.192;2022-08-30T04:08:37;25.30;;;17.03;;
74626;SDS011;63132;52.268;5.192;2022-08-30T04:11:03;24.25;;;17.88;;
74626;SDS011;63132;52.268;5.192;2022-08-30T04:13:29;25.17;;;17.98;;
74626;SDS011;63132;52.268;5.192;2022-08-30T04:15:54;31.27;;;18.53;;
74626;SDS011;63132;52.268;5.192;2022-08-30T04:18:20;28.73;;;19.37;;
74626;SDS011;63132;52.268;5.192;2022-08-30T04:20:46;27.97;;;18.33;;
74626;SDS011;63132;52.268;5.192;2022-08-30T04:23:12;27.63;;;19.45;;
74626;SDS011;63132;52.268;5.192;2022-08-30T04:25:39;26.23;;;19.13;;
74626;SDS011;63132;52.268;5.192;2022-08-30T04:28:05;21.85;;;17.05;;
74626;SDS011;63132;52.268;5.192;2022-08-30T04:30:32;25.98;;;17.65;;
74626;SDS011;63132;52.268;5.192;2022-08-30T04:32:58;26.08;;;18.67;;
74626;SDS011;63132;52.268;5.192;2022-08-30T04:35:24;23.50;;;17.42;;
74626;SDS011;63132;52.268;5.192;2022-08-30T04:37:50;25.77;;;18.98;;
74626;SDS011;63132;52.268;5.192;2022-08-30T04:40:16;27.00;;;18.27;;
74626;SDS011;63132;52.268;5.192;2022-08-30T04:42:42;25.98;;;18.35;;
74626;SDS011;63132;52.268;5.192;2022-08-30T04:45:09;28.55;;;18.90;;
74626;SDS011;63132;52.268;5.192;2022-08-30T04:47:38;23.95;;;16.63;;
74626;SDS011;63132;52.268;5.192;2022-08-30T04:50:05;24.38;;;18.45;;
74626;SDS011;63132;52.268;5.192;2022-08-30T04:52:32;24.20;;;17.98;;
74626;SDS011;63132;52.268;5.192;2022-08-30T04:54:58;29.63;;;17.83;;
74626;SDS011;63132;52.268;5.192;2022-08-30T04:57:24;24.30;;;18.13;;
74626;SDS011;63132;52.268;5.192;2022-08-30T04:59:51;25.67;;;18.25;;
74626;SDS011;63132;52.268;5.192;2022-08-30T05:02:17;25.88;;;17.70;;
74626;SDS011;63132;52.268;5.192;2022-08-30T05:04:42;27.38;;;18.13;;
74626;SDS011;63132;52.268;5.192;2022-08-30T05:07:28;26.27;;;18.07;;
74626;SDS011;63132;52.268;5.192;2022-08-30T05:09:55;21.98;;;16.95;;
74626;SDS011;63132;52.268;5.192;2022-08-30T05:12:22;22.20;;;16.67;;
74626;SDS011;63132;52.268;5.192;2022-08-30T05:14:48;24.10;;;17.40;;
74626;SDS011;63132;52.268;5.192;2022-08-30T05:17:14;21.85;;;16.52;;
74626;SDS011;63132;52.268;5.192;2022-08-30T05:19:40;24.47;;;16.07;;
74626;SDS011;63132;52.268;5.192;2022-08-30T05:22:05;19.33;;;15.40;;
74626;SDS011;63132;52.268;5.192;2022-08-30T05:24:31;20.60;;;15.70;;
74626;SDS011;63132;52.268;5.192;2022-08-30T05:26:57;21.15;;;15.32;;
74626;SDS011;63132;52.268;5.192;2022-08-30T05:29:22;22.05;;;15.43;;
74626;SDS011;63132;52.268;5.192;2022-08-30T05:31:48;19.33;;;14.57;;
74626;SDS011;63132;52.268;5.192;2022-08-30T05:34:14;19.07;;;14.13;;
74626;SDS011;63132;52.268;5.192;2022-08-30T05:36:39;19.40;;;13.82;;
74626;SDS011;63132;52.268;5.192;2022-08-30T05:39:05;16.23;;;12.70;;
74626;SDS011;63132;52.268;5.192;2022-08-30T05:41:32;21.05;;;12.85;;
74626;SDS011;63132;52.268;5.192;2022-08-30T05:43:58;19.40;;;12.52;;
74626;SDS011;63132;52.268;5.192;2022-08-30T05:46:26;18.33;;;12.55;;
74626;SDS011;63132;52.268;5.192;2022-08-30T05:48:54;16.75;;;12.50;;
74626;SDS011;63132;52.268;5.192;2022-08-30T05:51:21;17.67;;;12.50;;
74626;SDS011;63132;52.268;5.192;2022-08-30T05:53:50;17.37;;;11.37;;
74626;SDS011;63132;52.268;5.192;2022-08-30T05:56:17;17.30;;;12.07;;
74626;SDS011;63132;52.268;5.192;2022-08-30T05:58:45;21.47;;;12.40;;
74626;SDS011;63132;52.268;5.192;2022-08-30T06:01:21;19.77;;;11.73;;
74626;SDS011;63132;52.268;5.192;2022-08-30T06:03:47;19.90;;;11.48;;
74626;SDS011;63132;52.268;5.192;2022-08-30T06:06:13;15.10;;;10.48;;
74626;SDS011;63132;52.268;5.192;2022-08-30T06:08:38;14.57;;;10.20;;
74626;SDS011;63132;52.268;5.192;2022-08-30T06:11:04;13.97;;;10.23;;
74626;SDS011;63132;52.268;5.192;2022-08-30T06:13:29;13.50;;;9.65;;
74626;SDS011;63132;52.268;5.192;2022-08-30T06:15:55;16.63;;;10.00;;
74626;SDS011;63132;52.268;5.192;2022-08-30T06:18:21;16.35;;;9.55;;
74626;SDS011;63132;52.268;5.192;2022-08-30T06:20:46;13.80;;;8.80;;
74626;SDS011;63132;52.268;5.192;2022-08-30T06:23:11;13.70;;;8.60;;
74626;SDS011;63132;52.268;5.192;2022-08-30T06:25:41;13.30;;;8.73;;
74626;SDS011;63132;52.268;5.192;2022-08-30T06:28:06;14.68;;;8.20;;
74626;SDS011;63132;52.268;5.192;2022-08-30T06:30:32;11.95;;;8.00;;
74626;SDS011;63132;52.268;5.192;2022-08-30T06:32:58;9.93;;;7.30;;
74626;SDS011;63132;52.268;5.192;2022-08-30T06:35:24;10.23;;;7.43;;
74626;SDS011;63132;52.268;5.192;2022-08-30T06:37:50;13.68;;;7.25;;
74626;SDS011;63132;52.268;5.192;2022-08-30T06:40:15;10.75;;;6.65;;
74626;SDS011;63132;52.268;5.192;2022-08-30T06:42:43;11.02;;;6.30;;
74626;SDS011;63132;52.268;5.192;2022-08-30T06:45:09;8.93;;;5.82;;
74626;SDS011;63132;52.268;5.192;2022-08-30T06:47:35;12.90;;;5.63;;
74626;SDS011;63132;52.268;5.192;2022-08-30T06:50:00;10.17;;;4.93;;
74626;SDS011;63132;52.268;5.192;2022-08-30T06:52:25;11.50;;;4.73;;
74626;SDS011;63132;52.268;5.192;2022-08-30T06:54:52;9.07;;;4.70;;
74626;SDS011;63132;52.268;5.192;2022-08-30T06:57:18;6.88;;;4.30;;
74626;SDS011;63132;52.268;5.192;2022-08-30T06:59:44;9.07;;;4.40;;
74626;SDS011;63132;52.268;5.192;2022-08-30T07:02:09;9.53;;;4.40;;
74626;SDS011;63132;52.268;5.192;2022-08-30T07:04:35;9.77;;;4.10;;
74626;SDS011;63132;52.268;5.192;2022-08-30T07:07:00;10.73;;;3.37;;
74626;SDS011;63132;52.268;5.192;2022-08-30T07:09:25;9.17;;;3.67;;
74626;SDS011;63132;52.268;5.192;2022-08-30T07:11:51;6.72;;;3.80;;
74626;SDS011;63132;52.268;5.192;2022-08-30T07:14:17;6.70;;;3.15;;
74626;SDS011;63132;52.268;5.192;2022-08-30T07:16:43;11.23;;;3.50;;
74626;SDS011;63132;52.268;5.192;2022-08-30T07:19:09;6.70;;;3.43;;
74626;SDS011;63132;52.268;5.192;2022-08-30T07:21:36;8.80;;;3.40;;
74626;SDS011;63132;52.268;5.192;2022-08-30T07:24:03;8.50;;;3.03;;
74626;SDS011;63132;52.268;5.192;2022-08-30T07:26:33;6.72;;;2.92;;
74626;SDS011;63132;52.268;5.192;2022-08-30T07:29:01;5.97;;;2.72;;
74626;SDS011;63132;52.268;5.192;2022-08-30T07:31:27;8.20;;;2.70;;
74626;SDS011;63132;52.268;5.192;2022-08-30T07:33:53;8.80;;;2.63;;
74626;SDS011;63132;52.268;5.192;2022-08-30T07:36:19;6.32;;;2.60;;
74626;SDS011;63132;52.268;5.192;2022-08-30T07:38:46;5.78;;;2.55;;
74626;SDS011;63132;52.268;5.192;2022-08-30T07:41:19;6.15;;;2.67;;
74626;SDS011;63132;52.268;5.192;2022-08-30T07:43:49;7.13;;;2.60;;
74626;SDS011;63132;52.268;5.192;2022-08-30T07:46:15;6.93;;;1.90;;
74626;SDS011;63132;52.268;5.192;2022-08-30T07:48:41;8.70;;;1.90;;
74626;SDS011;63132;52.268;5.192;2022-08-30T07:51:11;11.82;;;2.05;;
74626;SDS011;63132;52.268;5.192;2022-08-30T07:53:41;6.00;;;2.23;;
74626;SDS011;63132;52.268;5.192;2022-08-30T07:56:06;8.30;;;2.33;;
74626;SDS011;63132;52.268;5.192;2022-08-30T07:58:32;5.10;;;1.88;;
74626;SDS011;63132;52.268;5.192;2022-08-30T08:00:58;7.17;;;2.20;;
74626;SDS011;63132;52.268;5.192;2022-08-30T08:03:27;8.60;;;2.03;;
74626;SDS011;63132;52.268;5.192;2022-08-30T08:05:53;4.50;;;1.70;;
74626;SDS011;63132;52.268;5.192;2022-08-30T08:08:19;5.00;;;1.57;;
74626;SDS011;63132;52.268;5.192;2022-08-30T08:10:45;6.40;;;1.98;;
74626;SDS011;63132;52.268;5.192;2022-08-30T08:13:11;4.03;;;1.45;;
74626;SDS011;63132;52.268;5.192;2022-08-30T08:15:37;4.17;;;1.50;;
74626;SDS011;63132;52.268;5.192;2022-08-30T08:18:03;5.43;;;1.57;;
74626;SDS011;63132;52.268;5.192;2022-08-30T08:20:29;7.30;;;1.70;;
74626;SDS011;63132;52.268;5.192;2022-08-30T08:22:58;4.65;;;1.40;;
74626;SDS011;63132;52.268;5.192;2022-08-30T08:25:23;4.30;;;1.50;;
74626;SDS011;63132;52.268;5.192;2022-08-30T08:27:49;5.07;;;1.60;;
74626;SDS011;63132;52.268;5.192;2022-08-30T08:30:16;6.63;;;1.92;;
74626;SDS011;63132;52.268;5.192;2022-08-30T08:32:43;4.93;;;1.55;;
74626;SDS011;63132;52.268;5.192;2022-08-30T08:35:09;6.78;;;1.52;;
74626;SDS011;63132;52.268;5.192;2022-08-30T08:37:35;5.55;;;1.67;;
74626;SDS011;63132;52.268;5.192;2022-08-30T08:40:01;9.02;;;2.22;;
74626;SDS011;63132;52.268;5.192;2022-08-30T08:42:31;6.20;;;1.73;;
74626;SDS011;63132;52.268;5.192;2022-08-30T08:45:13;7.93;;;1.90;;
74626;SDS011;63132;52.268;5.192;2022-08-30T08:50:23;5.00;;;1.60;;
74626;SDS011;63132;52.268;5.192;2022-08-30T08:53:01;5.40;;;1.98;;
74626;SDS011;63132;52.268;5.192;2022-08-30T08:55:48;4.88;;;1.77;;
74626;SDS011;63132;52.268;5.192;2022-08-30T08:58:23;6.35;;;1.83;;
74626;SDS011;63132;52.268;5.192;2022-08-30T09:00:51;5.93;;;1.70;;
74626;SDS011;63132;52.268;5.192;2022-08-30T09:03:21;5.88;;;1.73;;
74626;SDS011;63132;52.268;5.192;2022-08-30T09:05:49;7.07;;;1.90;;
74626;SDS011;63132;52.268;5.192;2022-08-30T09:08:16;4.43;;;1.50;;
74626;SDS011;63132;52.268;5.192;2022-08-30T09:10:51;7.30;;;1.60;;
74626;SDS011;63132;52.268;5.192;2022-08-30T09:13:21;5.60;;;1.60;;
74626;SDS011;63132;52.268;5.192;2022-08-30T09:15:48;5.20;;;1.95;;
74626;SDS011;63132;52.268;5.192;2022-08-30T09:18:15;6.20;;;1.80;;
74626;SDS011;63132;52.268;5.192;2022-08-30T09:20:46;5.78;;;1.40;;
74626;SDS011;63132;52.268;5.192;2022-08-30T09:25:53;5.97;;;1.90;;
74626;SDS011;63132;52.268;5.192;2022-08-30T09:29:04;4.07;;;1.50;;
74626;SDS011;63132;52.268;5.192;2022-08-30T09:31:27;9.35;;;1.85;;
74626;SDS011;63132;52.268;5.192;2022-08-30T09:34:01;5.18;;;1.50;;
74626;SDS011;63132;52.268;5.192;2022-08-30T09:36:43;6.13;;;1.58;;
74626;SDS011;63132;52.268;5.192;2022-08-30T09:39:13;7.63;;;1.80;;
74626;SDS011;63132;52.268;5.192;2022-08-30T09:41:43;10.07;;;1.83;;
74626;SDS011;63132;52.268;5.192;2022-08-30T09:46:48;6.28;;;1.50;;
74626;SDS011;63132;52.268;5.192;2022-08-30T09:57:28;6.22;;;1.70;;
74626;SDS011;63132;52.268;5.192;2022-08-30T10:05:12;5.35;;;1.75;;
74626;SDS011;63132;52.268;5.192;2022-08-30T10:19:05;4.80;;;1.80;;
74626;SDS011;63132;52.268;5.192;2022-08-30T10:21:38;7.30;;;1.50;;
74626;SDS011;63132;52.268;5.192;2022-08-30T10:24:08;6.10;;;1.30;;
74626;SDS011;63132;52.268;5.192;2022-08-30T10:27:24;6.30;;;1.55;;
74626;SDS011;63132;52.268;5.192;2022-08-30T10:35:22;5.85;;;2.00;;
74626;SDS011;63132;52.268;5.192;2022-08-30T10:37:55;5.43;;;1.90;;
74626;SDS011;63132;52.268;5.192;2022-08-30T10:40:33;7.65;;;1.60;;
74626;SDS011;63132;52.268;5.192;2022-08-30T10:46:29;6.93;;;1.80;;
74626;SDS011;63132;52.268;5.192;2022-08-30T10:49:04;4.95;;;1.80;;
74626;SDS011;63132;52.268;5.192;2022-08-30T10:51:40;5.57;;;1.80;;
74626;SDS011;63132;52.268;5.192;2022-08-30T10:56:58;4.65;;;1.40;;
74626;SDS011;63132;52.268;5.192;2022-08-30T10:59:23;5.22;;;1.77;;
74626;SDS011;63132;52.268;5.192;2022-08-30T11:01:55;7.57;;;1.87;;
74626;SDS011;63132;52.268;5.192;2022-08-30T11:14:44;5.20;;;1.58;;
74626;SDS011;63132;52.268;5.192;2022-08-30T11:17:26;8.10;;;1.67;;
74626;SDS011;63132;52.268;5.192;2022-08-30T11:19:56;4.55;;;1.67;;
74626;SDS011;63132;52.268;5.192;2022-08-30T11:22:29;4.35;;;1.40;;
74626;SDS011;63132;52.268;5.192;2022-08-30T11:24:58;6.00;;;1.70;;
74626;SDS011;63132;52.268;5.192;2022-08-30T11:33:01;6.57;;;1.90;;
74626;SDS011;63132;52.268;5.192;2022-08-30T11:36:00;3.53;;;1.50;;
74626;SDS011;63132;52.268;5.192;2022-08-30T11:40:51;6.75;;;1.60;;
74626;SDS011;63132;52.268;5.192;2022-08-30T11:49:37;5.53;;;1.70;;
74626;SDS011;63132;52.268;5.192;2022-08-30T11:57:31;5.20;;;1.80;;
74626;SDS011;63132;52.268;5.192;2022-08-30T12:08:08;7.00;;;1.60;;
74626;SDS011;63132;52.268;5.192;2022-08-30T12:16:17;4.53;;;1.63;;
74626;SDS011;63132;52.268;5.192;2022-08-30T12:18:46;3.22;;;1.50;;
74626;SDS011;63132;52.268;5.192;2022-08-30T12:26:35;5.03;;;1.83;;
74626;SDS011;63132;52.268;5.192;2022-08-30T12:29:13;4.03;;;1.75;;
74626;SDS011;63132;52.268;5.192;2022-08-30T12:31:46;4.72;;;1.70;;
74626;SDS011;63132;52.268;5.192;2022-08-30T12:34:26;5.70;;;1.90;;
74626;SDS011;63132;52.268;5.192;2022-08-30T12:36:55;4.50;;;1.60;;
74626;SDS011;63132;52.268;5.192;2022-08-30T12:41:47;4.17;;;1.63;;
74626;SDS011;63132;52.268;5.192;2022-08-30T12:44:14;6.20;;;1.70;;
74626;SDS011;63132;52.268;5.192;2022-08-30T12:46:47;4.97;;;1.80;;
74626;SDS011;63132;52.268;5.192;2022-08-30T12:49:16;4.70;;;1.60;;
74626;SDS011;63132;52.268;5.192;2022-08-30T12:51:43;5.55;;;1.70;;
74626;SDS011;63132;52.268;5.192;2022-08-30T12:54:17;5.97;;;1.58;;
74626;SDS011;63132;52.268;5.192;2022-08-30T12:56:46;5.63;;;1.60;;
74626;SDS011;63132;52.268;5.192;2022-08-30T12:59:40;5.10;;;1.73;;
74626;SDS011;63132;52.268;5.192;2022-08-30T13:02:20;9.00;;;1.50;;
74626;SDS011;63132;52.268;5.192;2022-08-30T13:04:48;5.10;;;1.35;;
74626;SDS011;63132;52.268;5.192;2022-08-30T13:07:24;5.60;;;1.40;;
74626;SDS011;63132;52.268;5.192;2022-08-30T13:09:59;2.95;;;1.42;;
74626;SDS011;63132;52.268;5.192;2022-08-30T13:12:26;6.78;;;1.65;;
74626;SDS011;63132;52.268;5.192;2022-08-30T13:14:52;6.03;;;1.60;;
74626;SDS011;63132;52.268;5.192;2022-08-30T13:17:32;5.90;;;1.73;;
74626;SDS011;63132;52.268;5.192;2022-08-30T13:23:20;3.90;;;1.48;;
74626;SDS011;63132;52.268;5.192;2022-08-30T13:25:27;5.97;;;1.70;;
74626;SDS011;63132;52.268;5.192;2022-08-30T13:27:54;6.60;;;1.50;;
74626;SDS011;63132;52.268;5.192;2022-08-30T13:30:19;3.90;;;1.33;;
74626;SDS011;63132;52.268;5.192;2022-08-30T13:32:45;7.40;;;1.87;;
74626;SDS011;63132;52.268;5.192;2022-08-30T13:35:10;4.83;;;1.50;;
74626;SDS011;63132;52.268;5.192;2022-08-30T13:37:36;4.47;;;1.30;;
74626;SDS011;63132;52.268;5.192;2022-08-30T13:40:06;6.50;;;1.90;;
74626;SDS011;63132;52.268;5.192;2022-08-30T13:42:33;6.53;;;1.67;;
74626;SDS011;63132;52.268;5.192;2022-08-30T13:44:58;7.17;;;1.70;;
74626;SDS011;63132;52.268;5.192;2022-08-30T13:47:24;5.68;;;1.52;;
74626;SDS011;63132;52.268;5.192;2022-08-30T13:49:49;5.83;;;1.40;;
74626;SDS011;63132;52.268;5.192;2022-08-30T13:52:18;3.67;;;1.33;;
74626;SDS011;63132;52.268;5.192;2022-08-30T13:54:52;5.60;;;1.30;;
74626;SDS011;63132;52.268;5.192;2022-08-30T13:57:20;4.82;;;1.48;;
74626;SDS011;63132;52.268;5.192;2022-08-30T13:59:47;4.40;;;1.50;;
74626;SDS011;63132;52.268;5.192;2022-08-30T14:02:13;4.33;;;1.40;;
74626;SDS011;63132;52.268;5.192;2022-08-30T14:04:38;5.50;;;1.85;;
74626;SDS011;63132;52.268;5.192;2022-08-30T14:07:04;5.63;;;1.70;;
74626;SDS011;63132;52.268;5.192;2022-08-30T14:09:29;4.38;;;1.40;;
74626;SDS011;63132;52.268;5.192;2022-08-30T14:11:55;7.55;;;1.65;;
74626;SDS011;63132;52.268;5.192;2022-08-30T14:14:20;4.53;;;1.47;;
74626;SDS011;63132;52.268;5.192;2022-08-30T14:16:46;5.87;;;1.53;;
74626;SDS011;63132;52.268;5.192;2022-08-30T14:19:12;3.42;;;1.40;;
74626;SDS011;63132;52.268;5.192;2022-08-30T14:21:40;3.08;;;1.50;;
74626;SDS011;63132;52.268;5.192;2022-08-30T14:24:06;4.60;;;1.50;;
74626;SDS011;63132;52.268;5.192;2022-08-30T14:26:33;5.90;;;1.67;;
74626;SDS011;63132;52.268;5.192;2022-08-30T14:29:04;4.70;;;1.65;;
74626;SDS011;63132;52.268;5.192;2022-08-30T14:31:32;3.90;;;1.48;;
74626;SDS011;63132;52.268;5.192;2022-08-30T14:33:58;5.45;;;1.80;;
74626;SDS011;63132;52.268;5.192;2022-08-30T14:36:24;5.23;;;1.60;;
74626;SDS011;63132;52.268;5.192;2022-08-30T14:38:50;4.93;;;1.70;;
74626;SDS011;63132;52.268;5.192;2022-08-30T14:41:15;4.10;;;1.27;;
74626;SDS011;63132;52.268;5.192;2022-08-30T14:43:41;6.50;;;1.70;;
74626;SDS011;63132;52.268;5.192;2022-08-30T14:46:07;5.50;;;1.77;;
74626;SDS011;63132;52.268;5.192;2022-08-30T14:48:34;7.53;;;1.60;;
74626;SDS011;63132;52.268;5.192;2022-08-30T14:51:00;6.07;;;1.43;;
74626;SDS011;63132;52.268;5.192;2022-08-30T14:53:27;3.40;;;1.52;;
74626;SDS011;63132;52.268;5.192;2022-08-30T14:55:52;3.25;;;1.35;;
74626;SDS011;63132;52.268;5.192;2022-08-30T14:58:17;3.43;;;1.60;;
74626;SDS011;63132;52.268;5.192;2022-08-30T15:00:49;4.28;;;1.40;;
74626;SDS011;63132;52.268;5.192;2022-08-30T15:03:16;6.25;;;1.50;;
74626;SDS011;63132;52.268;5.192;2022-08-30T15:05:46;3.83;;;1.63;;
74626;SDS011;63132;52.268;5.192;2022-08-30T15:08:13;3.83;;;1.40;;
74626;SDS011;63132;52.268;5.192;2022-08-30T15:10:39;4.68;;;1.42;;
74626;SDS011;63132;52.268;5.192;2022-08-30T15:13:04;4.57;;;1.55;;
74626;SDS011;63132;52.268;5.192;2022-08-30T15:15:30;7.80;;;1.83;;
74626;SDS011;63132;52.268;5.192;2022-08-30T15:17:56;4.65;;;1.52;;
74626;SDS011;63132;52.268;5.192;2022-08-30T15:20:21;6.40;;;1.73;;
74626;SDS011;63132;52.268;5.192;2022-08-30T15:22:46;5.57;;;1.60;;
74626;SDS011;63132;52.268;5.192;2022-08-30T15:25:12;4.20;;;1.30;;
74626;SDS011;63132;52.268;5.192;2022-08-30T15:27:37;5.30;;;1.70;;
74626;SDS011;63132;52.268;5.192;2022-08-30T15:30:04;4.18;;;1.30;;
74626;SDS011;63132;52.268;5.192;2022-08-30T15:32:30;6.93;;;2.10;;
74626;SDS011;63132;52.268;5.192;2022-08-30T15:34:56;6.38;;;1.50;;
74626;SDS011;63132;52.268;5.192;2022-08-30T15:37:23;6.80;;;1.57;;
74626;SDS011;63132;52.268;5.192;2022-08-30T15:39:49;4.67;;;1.50;;
74626;SDS011;63132;52.268;5.192;2022-08-30T15:42:15;4.80;;;1.48;;
74626;SDS011;63132;52.268;5.192;2022-08-30T15:44:43;6.35;;;1.60;;
74626;SDS011;63132;52.268;5.192;2022-08-30T15:47:09;4.90;;;1.70;;
74626;SDS011;63132;52.268;5.192;2022-08-30T15:49:34;4.13;;;1.38;;
74626;SDS011;63132;52.268;5.192;2022-08-30T15:52:00;6.03;;;1.47;;
74626;SDS011;63132;52.268;5.192;2022-08-30T15:54:27;4.90;;;1.45;;
74626;SDS011;63132;52.268;5.192;2022-08-30T15:56:53;3.00;;;1.30;;
74626;SDS011;63132;52.268;5.192;2022-08-30T15:59:23;3.85;;;1.27;;
74626;SDS011;63132;52.268;5.192;2022-08-30T16:01:52;6.05;;;1.40;;
74626;SDS011;63132;52.268;5.192;2022-08-30T16:04:18;3.38;;;1.60;;
74626;SDS011;63132;52.268;5.192;2022-08-30T16:06:44;4.37;;;1.50;;
74626;SDS011;63132;52.268;5.192;2022-08-30T16:09:10;4.65;;;1.40;;
74626;SDS011;63132;52.268;5.192;2022-08-30T16:11:35;4.10;;;1.30;;
74626;SDS011;63132;52.268;5.192;2022-08-30T16:14:02;4.90;;;1.20;;
74626;SDS011;63132;52.268;5.192;2022-08-30T16:16:29;4.47;;;1.23;;
74626;SDS011;63132;52.268;5.192;2022-08-30T16:18:55;4.22;;;1.45;;
74626;SDS011;63132;52.268;5.192;2022-08-30T16:21:22;6.15;;;1.48;;
74626;SDS011;63132;52.268;5.192;2022-08-30T16:23:49;3.15;;;1.40;;